createdAt,value
2019-03-25T00:00:06.900Z,35.39
2019-03-25T00:02:36.301Z,35.64
2019-03-25T00:05:06.584Z,35.82
2019-03-25T00:07:35.770Z,36.09
2019-03-25T00:10:06.006Z,36.47
2019-03-25T00:12:35.227Z,36.43
2019-03-25T00:15:06.412Z,36.38
2019-03-25T00:17:35.593Z,36.26
2019-03-25T00:20:06.259Z,36.08
2019-03-25T00:22:35.460Z,36.01
2019-03-25T00:25:05.986Z,35.82
2019-03-25T00:27:35.192Z,35.70
2019-03-25T00:30:05.011Z,35.68
2019-03-25T00:32:34.246Z,35.78
2019-03-25T00:35:03.867Z,35.94
2019-03-25T00:37:33.039Z,36.17
2019-03-25T00:40:02.277Z,36.42
2019-03-25T00:42:31.464Z,36.41
2019-03-25T00:45:00.642Z,36.60
2019-03-25T00:47:29.955Z,36.69
2019-03-25T00:49:59.280Z,36.44
2019-03-25T00:52:28.464Z,36.10
2019-03-25T00:54:57.881Z,35.59
2019-03-25T00:57:27.061Z,35.99
2019-03-25T00:59:56.236Z,36.55
2019-03-25T01:02:25.507Z,36.55
2019-03-25T01:04:54.713Z,36.36
2019-03-25T01:07:24.014Z,36.36
2019-03-25T01:09:53.205Z,36.55
2019-03-25T01:12:22.457Z,36.53
2019-03-25T01:14:51.751Z,36.25
2019-03-25T01:17:20.928Z,36.15
2019-03-25T01:19:50.177Z,36.17
2019-03-25T01:22:19.536Z,36.29
2019-03-25T01:24:48.718Z,36.17
2019-03-25T01:27:17.920Z,36.08
2019-03-25T01:29:47.210Z,36.22
2019-03-25T01:32:16.439Z,36.40
2019-03-25T01:34:45.630Z,36.00
2019-03-25T01:37:14.886Z,35.96
2019-03-25T01:39:44.086Z,36.03
2019-03-25T01:42:13.268Z,36.10
2019-03-25T01:44:42.586Z,36.27
2019-03-25T01:47:11.763Z,36.61
2019-03-25T01:49:41.012Z,36.65
2019-03-25T01:52:10.308Z,36.50
2019-03-25T01:54:39.496Z,36.27
2019-03-25T01:57:08.685Z,36.25
2019-03-25T01:59:37.885Z,36.35
2019-03-25T02:02:07.152Z,36.33
2019-03-25T02:04:36.433Z,36.61
2019-03-25T02:07:06.402Z,36.63
2019-03-25T02:09:35.727Z,36.49
2019-03-25T02:12:04.982Z,36.56
2019-03-25T02:14:34.174Z,36.73
2019-03-25T02:17:03.455Z,36.68
2019-03-25T02:19:32.635Z,36.35
2019-03-25T02:22:01.890Z,36.28
2019-03-25T02:24:31.077Z,36.19
2019-03-25T02:27:00.272Z,35.86
2019-03-25T02:29:29.479Z,35.85
2019-03-25T02:31:58.692Z,35.78
2019-03-25T02:34:27.947Z,35.56
2019-03-25T02:36:57.292Z,35.91
2019-03-25T02:39:26.531Z,35.89
2019-03-25T02:41:55.775Z,36.15
2019-03-25T02:44:24.968Z,36.40
2019-03-25T02:46:54.304Z,36.67
2019-03-25T02:49:23.575Z,36.74
2019-03-25T02:51:52.769Z,36.91
2019-03-25T02:54:22.049Z,36.72
2019-03-25T02:56:51.282Z,36.49
2019-03-25T02:59:20.478Z,36.49
2019-03-25T03:01:49.645Z,36.60
2019-03-25T03:04:18.902Z,36.93
2019-03-25T03:06:48.151Z,36.88
2019-03-25T03:09:17.428Z,36.85
2019-03-25T03:11:46.635Z,36.83
2019-03-25T03:14:15.835Z,36.96
2019-03-25T03:16:45.143Z,36.96
2019-03-25T03:19:14.352Z,36.77
2019-03-25T03:21:43.616Z,36.58
2019-03-25T03:24:12.981Z,36.35
2019-03-25T03:26:42.232Z,36.32
2019-03-25T03:29:11.539Z,36.36
2019-03-25T03:31:40.815Z,36.55
2019-03-25T03:34:10.070Z,36.56
2019-03-25T03:36:39.275Z,36.27
2019-03-25T03:39:08.609Z,36.20
2019-03-25T03:41:37.847Z,36.38
2019-03-25T03:44:07.094Z,36.35
2019-03-25T03:46:36.285Z,36.30
2019-03-25T03:49:05.746Z,36.27
2019-03-25T03:51:34.934Z,36.28
2019-03-25T03:54:04.190Z,36.22
2019-03-25T03:56:33.398Z,36.45
2019-03-25T03:59:02.581Z,36.58
2019-03-25T04:01:31.784Z,36.50
2019-03-25T04:04:00.963Z,36.52
2019-03-25T04:06:30.197Z,36.48
2019-03-25T04:08:59.372Z,36.44
2019-03-25T04:11:28.697Z,36.48
2019-03-25T04:13:57.903Z,36.48
2019-03-25T04:16:27.087Z,36.72
2019-03-25T04:18:56.321Z,36.51
2019-03-25T04:21:25.641Z,36.60
2019-03-25T04:23:54.888Z,36.32
2019-03-25T04:26:29.018Z,36.46
2019-03-25T04:28:55.150Z,36.22
2019-03-25T04:31:24.418Z,36.65
2019-03-25T04:33:53.675Z,36.81
2019-03-25T04:36:22.834Z,37.03
2019-03-25T04:38:52.093Z,36.83
2019-03-25T04:41:21.331Z,36.89
2019-03-25T04:43:50.512Z,36.67
2019-03-25T04:46:19.691Z,36.73
2019-03-25T04:48:48.909Z,36.85
2019-03-25T04:51:18.164Z,36.71
2019-03-25T04:53:47.341Z,36.50
2019-03-25T04:56:16.572Z,36.66
2019-03-25T04:58:46.037Z,36.69
2019-03-25T05:01:15.326Z,36.77
2019-03-25T05:03:44.667Z,36.74
2019-03-25T05:06:13.858Z,36.71
2019-03-25T05:08:43.027Z,36.64
2019-03-25T05:11:12.254Z,36.51
2019-03-25T05:13:41.444Z,36.64
2019-03-25T05:16:10.714Z,36.84
2019-03-25T05:18:40.136Z,36.61
2019-03-25T05:21:09.382Z,36.33
2019-03-25T05:23:38.707Z,36.46
2019-03-25T05:26:07.987Z,36.50
2019-03-25T05:28:37.161Z,36.42
2019-03-25T05:31:06.505Z,36.34
2019-03-25T05:33:35.710Z,35.98
2019-03-25T05:36:05.579Z,36.23
2019-03-25T05:38:36.425Z,36.14
2019-03-25T05:41:05.679Z,36.24
2019-03-25T05:43:35.051Z,36.00
2019-03-25T05:46:04.316Z,36.00
2019-03-25T05:48:33.706Z,35.54
2019-03-25T05:51:03.235Z,35.01
2019-03-25T05:53:32.880Z,34.41
2019-03-25T05:56:02.078Z,34.08
2019-03-25T05:58:31.331Z,34.21
2019-03-25T06:01:00.709Z,33.57
2019-03-25T06:03:30.076Z,33.80
2019-03-25T06:06:01.059Z,32.90
2019-03-25T06:08:30.488Z,33.13
2019-03-25T06:10:59.837Z,33.52
2019-03-25T06:13:29.303Z,33.33
2019-03-25T06:15:58.631Z,33.34
2019-03-25T06:18:28.077Z,33.50
2019-03-25T06:20:57.491Z,33.70
2019-03-25T06:23:26.763Z,33.36
2019-03-25T06:25:56.191Z,33.57
2019-03-25T06:28:25.374Z,33.34
2019-03-25T06:30:54.737Z,33.41
2019-03-25T06:33:24.005Z,33.03
2019-03-25T06:35:53.221Z,32.92
2019-03-25T06:38:22.678Z,32.72
2019-03-25T06:40:51.987Z,32.80
2019-03-25T06:43:21.347Z,32.64
2019-03-25T06:45:50.834Z,32.42
2019-03-25T06:48:20.015Z,32.60
2019-03-25T06:50:49.348Z,32.42
2019-03-25T06:53:18.843Z,32.35
2019-03-25T06:55:48.025Z,31.65
2019-03-25T06:58:17.283Z,31.48
2019-03-25T07:00:46.645Z,30.83
2019-03-25T07:03:15.908Z,30.16
2019-03-25T07:05:45.362Z,28.83
2019-03-25T07:08:14.742Z,28.25
2019-03-25T07:10:44.047Z,27.25
2019-03-25T07:13:13.357Z,26.50
2019-03-25T07:15:44.202Z,25.56
2019-03-25T07:18:13.879Z,25.56
2019-03-25T07:20:43.152Z,24.99
2019-03-25T07:23:12.849Z,24.35
2019-03-25T07:25:42.025Z,24.66
2019-03-25T07:28:11.361Z,24.97
2019-03-25T07:30:40.675Z,24.44
2019-03-25T07:33:09.908Z,25.13
2019-03-25T07:35:39.181Z,24.99
2019-03-25T07:38:08.587Z,24.39
2019-03-25T07:40:37.895Z,24.88
2019-03-25T07:43:07.570Z,24.89
2019-03-25T07:45:36.748Z,25.04
2019-03-25T07:48:06.065Z,24.21
2019-03-25T07:50:35.488Z,23.79
2019-03-25T07:53:04.832Z,22.60
2019-03-25T07:55:34.339Z,22.34
2019-03-25T07:58:03.633Z,21.63
2019-03-25T08:00:32.881Z,22.26
2019-03-25T08:03:02.322Z,22.37
2019-03-25T08:05:31.632Z,22.70
2019-03-25T08:08:00.882Z,22.71
2019-03-25T08:10:35.380Z,22.71
2019-03-25T08:13:04.862Z,22.99
2019-03-25T08:15:34.292Z,23.45
2019-03-25T08:18:03.761Z,23.61
2019-03-25T08:20:33.033Z,23.77
2019-03-25T08:23:02.345Z,23.92
2019-03-25T08:25:31.615Z,24.15
2019-03-25T08:28:00.863Z,23.96
2019-03-25T08:30:30.090Z,24.57
2019-03-25T08:32:59.489Z,24.83
2019-03-25T08:35:28.799Z,25.50
2019-03-25T08:37:58.080Z,26.05
2019-03-25T08:40:27.397Z,27.24
2019-03-25T08:42:57.474Z,27.46
2019-03-25T08:45:26.873Z,27.86
2019-03-25T08:47:56.190Z,26.96
2019-03-25T08:50:25.411Z,27.12
2019-03-25T08:52:54.854Z,26.80
2019-03-25T08:55:24.209Z,26.66
2019-03-25T08:57:53.621Z,27.17
2019-03-25T09:00:23.068Z,27.38
2019-03-25T09:02:52.356Z,27.63
2019-03-25T09:05:21.531Z,27.26
2019-03-25T09:07:50.957Z,26.15
2019-03-25T09:10:20.263Z,25.44
2019-03-25T09:12:49.629Z,24.59
2019-03-25T09:15:19.044Z,23.23
2019-03-25T09:17:48.385Z,21.30
2019-03-25T09:20:17.762Z,19.23
2019-03-25T09:22:47.605Z,18.90
2019-03-25T09:25:16.920Z,18.50
2019-03-25T09:27:46.277Z,18.31
2019-03-25T09:30:18.794Z,18.96
2019-03-25T09:32:48.416Z,19.16
2019-03-25T09:35:17.826Z,19.62
2019-03-25T09:37:47.231Z,20.44
2019-03-25T09:40:16.542Z,21.20
2019-03-25T09:42:45.935Z,20.16
2019-03-25T09:45:15.254Z,20.81
2019-03-25T09:47:44.716Z,20.72
2019-03-25T09:50:14.299Z,21.02
2019-03-25T09:52:43.618Z,21.32
2019-03-25T09:55:12.948Z,21.33
2019-03-25T09:57:42.308Z,20.77
2019-03-25T10:00:11.764Z,20.86
2019-03-25T10:02:41.144Z,19.34
2019-03-25T10:05:10.511Z,19.28
2019-03-25T10:07:39.799Z,19.10
2019-03-25T10:10:09.249Z,18.80
2019-03-25T10:12:38.569Z,19.12
2019-03-25T10:15:09.919Z,20.47
2019-03-25T10:17:39.465Z,20.97
2019-03-25T10:20:08.848Z,21.33
2019-03-25T10:22:38.200Z,20.71
2019-03-25T10:25:08.301Z,20.75
2019-03-25T10:27:37.543Z,21.11
2019-03-25T10:30:14.852Z,21.95
2019-03-25T10:32:44.181Z,21.95
2019-03-25T10:35:13.506Z,22.26
2019-03-25T10:37:42.808Z,22.40
2019-03-25T10:40:12.186Z,22.15
2019-03-25T10:42:41.502Z,22.98
2019-03-25T10:45:10.913Z,22.49
2019-03-25T10:47:40.253Z,22.53
2019-03-25T10:50:10.344Z,22.47
2019-03-25T10:52:39.747Z,22.56
2019-03-25T10:55:09.569Z,23.12
2019-03-25T10:57:38.815Z,23.27
2019-03-25T11:00:08.938Z,23.72
2019-03-25T11:02:38.295Z,23.56
2019-03-25T11:05:07.595Z,22.98
2019-03-25T11:07:37.122Z,22.98
2019-03-25T11:10:08.098Z,22.66
2019-03-25T11:12:37.357Z,23.19
2019-03-25T11:15:07.823Z,23.96
2019-03-25T11:17:37.316Z,24.36
2019-03-25T11:20:08.518Z,24.73
2019-03-25T11:22:37.900Z,25.08
2019-03-25T11:25:07.281Z,23.82
2019-03-25T11:27:36.673Z,24.42
2019-03-25T11:30:09.591Z,24.35
2019-03-25T11:32:38.986Z,23.29
2019-03-25T11:35:08.972Z,23.13
2019-03-25T11:37:38.385Z,22.15
2019-03-25T12:20:24.044Z,22.69
2019-03-25T12:22:53.281Z,22.65
2019-03-25T12:25:22.460Z,22.84
2019-03-25T12:27:51.693Z,22.49
2019-03-25T12:30:20.871Z,22.29
2019-03-25T12:32:50.054Z,21.82
2019-03-25T12:35:19.337Z,23.12
2019-03-25T12:37:48.599Z,22.99
2019-03-25T12:40:17.843Z,22.09
2019-03-25T12:42:47.134Z,22.27
2019-03-25T12:45:16.308Z,22.64
2019-03-25T12:47:45.595Z,20.91
2019-03-25T12:50:14.810Z,21.88
2019-03-25T12:52:44.179Z,21.48
2019-03-25T12:55:13.392Z,21.44
2019-03-25T12:57:42.650Z,21.12
2019-03-25T13:00:11.892Z,21.05
2019-03-25T13:02:41.082Z,21.69
2019-03-25T13:05:10.379Z,21.12
2019-03-25T13:07:39.620Z,21.15
2019-03-25T13:10:08.787Z,21.40
2019-03-25T13:12:38.059Z,21.53
2019-03-25T13:15:07.503Z,21.83
2019-03-25T13:17:36.750Z,21.86
2019-03-25T13:20:06.857Z,22.30
2019-03-25T13:22:36.026Z,22.03
2019-03-25T13:25:05.909Z,22.30
2019-03-25T13:27:35.103Z,21.95
2019-03-25T13:30:06.788Z,22.17
2019-03-25T13:32:36.105Z,23.01
2019-03-25T13:35:08.565Z,22.49
2019-03-25T13:37:37.240Z,21.67
2019-03-25T13:40:07.772Z,22.34
2019-03-25T13:42:37.091Z,22.35
2019-03-25T13:45:06.830Z,22.20
2019-03-25T13:47:36.006Z,21.28
2019-03-25T13:50:06.434Z,21.60
2019-03-25T13:52:35.708Z,22.33
2019-03-25T13:55:05.864Z,21.69
2019-03-25T13:57:35.103Z,22.10
2019-03-25T14:00:06.589Z,21.04
2019-03-25T14:02:35.804Z,21.93
2019-03-25T14:05:05.765Z,22.11
2019-03-25T14:07:34.955Z,22.59
2019-03-25T14:10:08.806Z,22.47
2019-03-25T14:12:37.975Z,23.10
2019-03-25T14:15:08.016Z,23.37
2019-03-25T14:17:37.263Z,23.35
2019-03-25T14:20:07.711Z,23.52
2019-03-25T14:22:37.197Z,23.70
2019-03-25T14:25:06.517Z,23.68
2019-03-25T14:27:35.684Z,23.10
2019-03-25T14:30:14.505Z,23.11
2019-03-25T14:32:38.738Z,22.83
2019-03-25T14:35:07.924Z,22.95
2019-03-25T14:37:37.166Z,22.96
2019-03-25T14:40:07.676Z,23.22
2019-03-25T14:42:37.977Z,23.24
2019-03-25T14:45:07.450Z,23.25
2019-03-25T14:47:36.749Z,23.28
2019-03-25T14:50:08.930Z,23.96
2019-03-25T14:52:38.116Z,24.24
2019-03-25T14:55:29.521Z,24.02
2019-03-25T14:57:55.108Z,24.81
2019-03-25T15:00:25.558Z,24.93
2019-03-25T15:02:54.928Z,24.97
2019-03-25T15:05:24.202Z,25.11
2019-03-25T15:07:53.551Z,25.32
2019-03-25T15:10:22.791Z,24.46
2019-03-25T15:12:51.960Z,24.24
2019-03-25T15:15:21.353Z,23.37
2019-03-25T15:17:50.521Z,23.30
2019-03-25T15:20:19.801Z,23.71
2019-03-25T15:22:49.023Z,23.94
2019-03-25T15:25:18.338Z,24.41
2019-03-25T15:27:47.836Z,24.48
2019-03-25T15:30:17.018Z,24.64
2019-03-25T15:32:46.192Z,25.08
2019-03-25T15:35:15.395Z,25.04
2019-03-25T15:37:44.568Z,25.52
2019-03-25T15:40:15.999Z,25.44
2019-03-25T15:42:46.327Z,25.60
2019-03-25T15:45:15.529Z,25.58
2019-03-25T15:47:47.136Z,25.46
2019-03-25T15:50:15.928Z,25.53
2019-03-25T15:52:45.205Z,25.27
2019-03-25T15:55:14.383Z,25.38
2019-03-25T15:57:43.585Z,25.30
2019-03-25T16:00:16.894Z,25.57
2019-03-25T16:02:46.070Z,27.63
2019-03-25T16:05:15.663Z,29.50
2019-03-25T16:07:44.953Z,30.25
2019-03-25T16:10:15.886Z,31.27
2019-03-25T16:12:45.630Z,32.12
2019-03-25T16:15:20.937Z,32.73
2019-03-25T16:17:50.117Z,32.97
2019-03-25T16:20:19.441Z,34.20
2019-03-25T16:22:48.632Z,34.55
2019-03-25T16:25:26.152Z,35.08
2019-03-25T16:27:55.463Z,35.78
2019-03-25T16:30:24.669Z,35.51
2019-03-25T16:32:54.079Z,35.74
2019-03-25T16:35:23.698Z,34.86
2019-03-25T16:37:52.940Z,35.87
2019-03-25T16:40:22.114Z,35.50
2019-03-25T16:42:51.338Z,34.69
2019-03-25T16:45:20.550Z,34.96
2019-03-25T16:47:49.786Z,34.77
2019-03-25T16:50:19.103Z,34.43
2019-03-25T16:52:48.311Z,34.63
2019-03-25T16:55:17.555Z,34.95
2019-03-25T16:57:46.894Z,34.96
2019-03-25T17:00:26.877Z,34.72
2019-03-25T17:02:47.227Z,35.10
2019-03-25T17:05:16.461Z,35.26
2019-03-25T17:07:45.633Z,35.34
2019-03-25T17:10:14.805Z,35.57
2019-03-25T17:12:44.016Z,35.55
2019-03-25T17:15:13.331Z,36.06
2019-03-25T17:17:42.493Z,36.08
2019-03-25T17:20:11.808Z,36.28
2019-03-25T17:22:41.074Z,36.30
2019-03-25T17:25:10.337Z,36.32
2019-03-25T17:27:39.588Z,36.34
2019-03-25T17:30:17.014Z,36.59
2019-03-25T17:32:46.186Z,36.64
2019-03-25T17:35:15.361Z,36.51
2019-03-25T17:37:44.674Z,36.38
2019-03-25T17:40:13.882Z,36.23
2019-03-25T17:42:43.165Z,36.41
2019-03-25T17:45:12.407Z,36.54
2019-03-25T17:47:41.653Z,36.61
2019-03-25T17:50:10.911Z,36.45
2019-03-25T17:52:40.157Z,36.32
2019-03-25T17:55:09.342Z,36.21
2019-03-25T17:57:38.597Z,35.97
2019-03-25T18:00:09.748Z,36.22
2019-03-25T18:02:39.133Z,36.08
2019-03-25T18:05:08.650Z,36.22
2019-03-25T18:07:37.896Z,36.04
2019-03-25T18:10:08.007Z,36.16
2019-03-25T18:12:38.948Z,36.14
2019-03-25T18:15:11.868Z,36.19
2019-03-25T18:17:41.047Z,35.92
2019-03-25T18:20:18.573Z,35.65
2019-03-25T18:22:41.348Z,35.52
2019-03-25T18:25:10.622Z,35.74
2019-03-25T18:27:39.942Z,35.82
2019-03-25T18:30:09.186Z,35.97
2019-03-25T18:32:38.436Z,35.77
2019-03-25T18:35:07.613Z,35.92
2019-03-25T18:37:36.846Z,35.94
2019-03-25T18:40:06.146Z,36.01
2019-03-25T18:42:35.395Z,35.74
2019-03-25T18:45:05.614Z,35.77
2019-03-25T18:47:34.844Z,35.70
2019-03-25T18:50:07.553Z,35.84
2019-03-25T18:52:36.860Z,35.86
2019-03-25T18:55:07.689Z,36.10
2019-03-25T18:57:37.023Z,36.13
2019-03-25T19:00:08.889Z,36.29
2019-03-25T19:02:38.097Z,36.29
2019-03-25T19:05:07.549Z,36.15
2019-03-25T19:07:36.729Z,35.92
2019-03-25T19:10:08.739Z,36.13
2019-03-25T19:12:37.975Z,36.22
2019-03-25T19:15:08.282Z,36.30
2019-03-25T19:17:37.573Z,36.11
2019-03-25T19:20:07.182Z,36.05
2019-03-25T19:22:36.393Z,36.06
2019-03-25T19:25:06.198Z,36.16
2019-03-25T19:27:35.378Z,36.27
2019-03-25T19:30:07.517Z,36.51
2019-03-25T19:32:36.768Z,36.60
2019-03-25T19:35:07.259Z,37.15
2019-03-25T19:37:37.082Z,37.35
2019-03-25T19:40:09.237Z,37.40
2019-03-25T19:42:38.486Z,37.28
2019-03-25T19:45:08.614Z,37.13
2019-03-25T19:47:37.897Z,37.34
2019-03-25T19:50:07.797Z,37.81
2019-03-25T19:52:37.022Z,37.88
2019-03-25T19:55:06.346Z,38.55
2019-03-25T19:57:37.179Z,39.04
2019-03-25T20:00:09.737Z,39.18
2019-03-25T20:02:39.060Z,39.52
2019-03-25T20:05:08.356Z,39.98
2019-03-25T20:07:37.624Z,40.32
2019-03-25T20:10:09.524Z,40.58
2019-03-25T20:12:38.892Z,41.60
2019-03-25T20:15:08.218Z,41.92
2019-03-25T20:17:37.536Z,41.93
2019-03-25T20:20:06.932Z,41.69
2019-03-25T20:22:36.248Z,41.58
2019-03-25T20:25:06.913Z,41.88
2019-03-25T20:27:36.253Z,41.60
2019-03-25T20:30:11.782Z,41.87
2019-03-25T20:32:41.150Z,41.60
2019-03-25T20:35:10.420Z,41.92
2019-03-25T20:37:39.682Z,41.61
2019-03-25T20:40:08.974Z,42.50
2019-03-25T20:42:38.184Z,42.95
2019-03-25T20:45:08.290Z,42.70
2019-03-25T20:47:37.420Z,43.43
2019-03-25T20:50:06.957Z,44.05
2019-03-25T20:52:36.590Z,43.83
2019-03-25T20:55:06.870Z,44.31
2019-03-25T20:57:36.109Z,44.12
2019-03-25T21:00:09.745Z,43.59
2019-03-25T21:02:44.913Z,43.25
2019-03-25T21:05:09.933Z,42.91
2019-03-25T21:07:39.261Z,43.17
2019-03-25T21:10:08.747Z,43.01
2019-03-25T21:12:38.667Z,42.71
2019-03-25T21:15:08.631Z,42.16
2019-03-25T21:17:38.134Z,41.44
2019-03-25T21:20:09.404Z,42.09
2019-03-25T21:22:39.162Z,41.26
2019-03-25T21:25:08.373Z,42.12
2019-03-25T21:27:37.613Z,42.41
2019-03-25T21:30:07.601Z,42.91
2019-03-25T21:32:36.889Z,43.44
2019-03-25T21:35:06.899Z,44.20
2019-03-25T21:37:36.415Z,44.69
2019-03-25T21:40:07.098Z,44.44
2019-03-25T21:42:36.512Z,44.21
2019-03-25T21:45:08.356Z,44.94
2019-03-25T21:47:37.656Z,44.97
2019-03-25T21:50:06.975Z,45.73
2019-03-25T21:52:36.341Z,46.00
2019-03-25T21:55:06.702Z,45.35
2019-03-25T21:57:35.963Z,44.70
2019-03-25T22:00:07.091Z,44.38
2019-03-25T22:02:36.382Z,43.78
2019-03-25T22:05:06.815Z,44.34
2019-03-25T22:07:36.037Z,43.86
2019-03-25T22:10:05.313Z,44.40
2019-03-25T22:12:34.845Z,44.45
2019-03-25T22:15:07.222Z,44.44
2019-03-25T22:17:35.808Z,44.30
2019-03-25T22:20:08.514Z,43.97
2019-03-25T22:22:37.700Z,44.20
2019-03-25T22:25:08.172Z,44.04
2019-03-25T22:27:37.397Z,44.18
2019-03-25T22:30:09.834Z,43.83
2019-03-25T22:32:38.475Z,44.15
2019-03-25T22:35:07.763Z,44.19
2019-03-25T22:37:36.941Z,44.70
2019-03-25T22:40:07.553Z,44.76
2019-03-25T22:42:36.784Z,44.73
2019-03-25T22:45:07.591Z,44.48
2019-03-25T22:47:36.940Z,44.16
2019-03-25T22:50:07.786Z,43.71
2019-03-25T22:52:36.955Z,43.34
2019-03-25T22:55:07.078Z,43.23
2019-03-25T22:57:36.293Z,43.33
2019-03-25T23:00:07.264Z,43.29
2019-03-25T23:02:36.425Z,43.57
2019-03-25T23:05:06.481Z,44.04
2019-03-25T23:07:35.779Z,44.18
2019-03-25T23:10:05.375Z,44.13
2019-03-25T23:12:34.555Z,44.44
2019-03-25T23:15:04.764Z,44.61
2019-03-25T23:17:33.973Z,44.39
2019-03-25T23:20:03.141Z,44.18
2019-03-25T23:22:32.322Z,44.13
2019-03-25T23:25:01.556Z,44.48
2019-03-25T23:27:30.802Z,44.13
2019-03-25T23:30:00.165Z,43.54
2019-03-25T23:32:29.392Z,43.29
2019-03-25T23:34:58.614Z,42.36
2019-03-25T23:37:27.783Z,42.83
2019-03-25T23:39:56.960Z,42.68
2019-03-25T23:42:26.194Z,42.65
2019-03-25T23:44:55.378Z,43.19
2019-03-25T23:47:24.543Z,43.12
2019-03-25T23:49:53.764Z,43.47
2019-03-25T23:52:22.953Z,43.39
2019-03-25T23:54:52.269Z,43.64
2019-03-25T23:57:21.542Z,43.46
2019-03-25T23:59:50.746Z,43.77
